createdAt,value
2018-12-31T00:02:34.574Z,28.60
2018-12-31T00:07:40.647Z,29.27
2018-12-31T00:12:46.829Z,33.90
2018-12-31T00:17:53.089Z,30.17
2018-12-31T00:22:59.631Z,30.67
2018-12-31T00:28:06.152Z,31.77
2018-12-31T00:33:12.322Z,30.27
2018-12-31T00:38:18.355Z,34.53
2018-12-31T00:43:25.187Z,29.40
2018-12-31T00:48:31.615Z,30.03
2018-12-31T00:53:37.937Z,30.90
2018-12-31T00:58:44.211Z,30.80
2018-12-31T01:03:50.614Z,31.47
2018-12-31T01:08:56.868Z,27.73
2018-12-31T01:14:02.917Z,29.47
2018-12-31T01:19:09.167Z,28.90
2018-12-31T01:24:15.539Z,27.23
2018-12-31T01:29:21.674Z,28.27
2018-12-31T01:34:28.165Z,30.03
2018-12-31T01:39:34.206Z,26.83
2018-12-31T01:44:40.702Z,24.17
2018-12-31T01:49:47.161Z,25.00
2018-12-31T01:54:53.392Z,31.47
2018-12-31T02:00:00.035Z,28.97
2018-12-31T02:05:06.583Z,28.43
2018-12-31T02:10:13.283Z,25.63
2018-12-31T02:15:19.642Z,27.00
2018-12-31T02:20:26.260Z,25.50
2018-12-31T02:25:32.521Z,24.83
2018-12-31T02:30:39.129Z,23.67
2018-12-31T02:35:45.235Z,30.07
2018-12-31T02:40:53.095Z,30.70
2018-12-31T02:45:59.199Z,29.50
2018-12-31T02:51:05.475Z,26.93
2018-12-31T02:56:11.690Z,30.67
2018-12-31T03:01:17.811Z,26.73
2018-12-31T03:06:23.983Z,27.70
2018-12-31T03:11:30.184Z,28.23
2018-12-31T03:16:36.396Z,25.67
2018-12-31T03:21:42.638Z,23.00
2018-12-31T03:26:48.883Z,22.40
2018-12-31T03:31:55.417Z,21.07
2018-12-31T03:37:01.462Z,24.90
2018-12-31T03:42:07.934Z,23.03
2018-12-31T03:47:14.110Z,21.73
2018-12-31T03:52:20.363Z,18.93
2018-12-31T03:57:27.011Z,21.27
2018-12-31T04:02:33.463Z,21.70
2018-12-31T04:07:39.659Z,17.93
2018-12-31T04:12:45.898Z,21.83
2018-12-31T04:17:52.197Z,17.50
2018-12-31T04:22:58.398Z,18.03
2018-12-31T04:28:04.786Z,20.40
2018-12-31T04:33:10.912Z,13.03
2018-12-31T04:38:17.119Z,20.40
2018-12-31T04:43:23.614Z,18.23
2018-12-31T04:48:29.889Z,24.23
2018-12-31T04:53:36.081Z,19.50
2018-12-31T04:58:42.877Z,20.03
2018-12-31T05:03:48.989Z,17.30
2018-12-31T05:08:55.110Z,16.20
2018-12-31T05:14:01.169Z,21.93
2018-12-31T05:19:07.378Z,16.37
2018-12-31T05:24:13.446Z,15.10
2018-12-31T05:29:19.370Z,20.83
2018-12-31T05:34:25.298Z,19.43
2018-12-31T05:39:31.440Z,17.20
2018-12-31T05:44:37.662Z,17.93
2018-12-31T05:49:43.899Z,21.20
2018-12-31T05:54:49.990Z,18.40
2018-12-31T05:59:56.230Z,24.07
2018-12-31T06:05:02.804Z,29.60
2018-12-31T06:10:09.003Z,35.07
2018-12-31T06:15:15.254Z,33.83
2018-12-31T06:20:21.387Z,35.27
2018-12-31T06:25:27.986Z,20.97
2018-12-31T06:30:34.142Z,22.00
2018-12-31T06:35:40.461Z,24.93
2018-12-31T06:40:46.652Z,22.33
2018-12-31T06:45:52.727Z,22.53
2018-12-31T06:50:58.877Z,22.97
2018-12-31T06:56:04.982Z,21.53
2018-12-31T07:01:11.539Z,22.73
2018-12-31T07:06:17.587Z,27.80
2018-12-31T07:11:23.601Z,18.77
2018-12-31T07:16:29.834Z,19.23
2018-12-31T07:21:35.888Z,23.17
2018-12-31T07:26:42.330Z,20.80
2018-12-31T07:31:49.382Z,19.43
2018-12-31T07:36:55.573Z,18.80
2018-12-31T07:42:01.713Z,23.53
2018-12-31T07:47:08.276Z,19.40
2018-12-31T07:52:14.548Z,21.40
2018-12-31T07:57:21.767Z,22.47
2018-12-31T08:02:27.802Z,23.67
2018-12-31T08:07:34.494Z,23.23
2018-12-31T08:12:40.736Z,23.73
2018-12-31T08:17:46.941Z,17.60
2018-12-31T08:22:52.874Z,22.10
2018-12-31T08:27:58.999Z,28.27
2018-12-31T08:33:06.179Z,22.57
2018-12-31T08:38:12.814Z,21.90
2018-12-31T08:43:18.915Z,21.03
2018-12-31T08:48:25.045Z,18.53
2018-12-31T08:53:31.118Z,19.87
2018-12-31T08:58:37.294Z,26.33
2018-12-31T09:03:43.714Z,23.67
2018-12-31T09:08:49.866Z,16.70
2018-12-31T09:13:56.162Z,19.60
2018-12-31T09:19:02.255Z,19.43
2018-12-31T09:24:08.709Z,20.27
2018-12-31T09:29:14.968Z,22.03
2018-12-31T09:34:21.595Z,18.80
2018-12-31T09:39:27.962Z,20.77
2018-12-31T09:44:34.054Z,15.87
2018-12-31T09:49:40.197Z,19.97
2018-12-31T09:54:46.189Z,21.53
2018-12-31T09:59:52.491Z,21.70
2018-12-31T10:04:58.584Z,18.80
2018-12-31T10:10:04.735Z,18.53
2018-12-31T10:15:13.850Z,21.07
2018-12-31T10:20:19.918Z,20.50
2018-12-31T10:25:26.034Z,21.43
2018-12-31T10:30:32.430Z,25.00
2018-12-31T10:35:38.530Z,29.53
2018-12-31T10:40:44.738Z,24.43
2018-12-31T10:45:51.042Z,27.00
2018-12-31T10:50:57.322Z,22.87
2018-12-31T10:56:03.396Z,23.17
2018-12-31T11:01:09.569Z,20.20
2018-12-31T11:06:15.980Z,22.90
2018-12-31T11:11:22.079Z,26.27
2018-12-31T11:16:28.253Z,27.30
2018-12-31T11:21:34.259Z,25.17
2018-12-31T11:26:40.370Z,24.73
2018-12-31T11:31:46.469Z,24.27
2018-12-31T11:36:53.868Z,23.80
2018-12-31T11:42:01.714Z,22.67
2018-12-31T11:47:07.806Z,22.60
2018-12-31T11:52:14.806Z,25.20
2018-12-31T11:57:20.897Z,23.80
2018-12-31T12:02:28.114Z,20.57
2018-12-31T12:07:34.169Z,21.03
2018-12-31T12:12:40.234Z,23.80
2018-12-31T12:17:46.294Z,22.23
2018-12-31T12:22:52.866Z,26.10
2018-12-31T12:27:58.872Z,24.30
2018-12-31T12:33:05.471Z,46.40
2018-12-31T12:38:11.711Z,24.57
2018-12-31T12:43:17.882Z,21.73
2018-12-31T12:48:23.901Z,23.13
2018-12-31T12:53:30.104Z,24.60
2018-12-31T12:58:36.434Z,23.13
2018-12-31T13:03:42.852Z,22.87
2018-12-31T13:08:48.979Z,21.73
2018-12-31T13:13:55.294Z,20.53
2018-12-31T13:19:01.399Z,22.07
2018-12-31T13:24:07.553Z,21.80
2018-12-31T13:29:13.590Z,17.63
2018-12-31T13:34:19.746Z,17.50
2018-12-31T13:39:25.954Z,17.90
2018-12-31T13:44:33.046Z,21.47
2018-12-31T13:49:39.166Z,25.33
2018-12-31T13:54:45.359Z,21.67
2018-12-31T13:59:51.922Z,20.80
2018-12-31T14:04:58.072Z,23.97
2018-12-31T14:10:05.903Z,20.63
2018-12-31T14:15:12.193Z,22.57
2018-12-31T14:20:19.292Z,21.13
2018-12-31T14:25:25.686Z,21.47
2018-12-31T14:30:31.994Z,22.10
2018-12-31T14:35:45.538Z,25.13
2018-12-31T14:40:45.809Z,22.90
2018-12-31T14:45:52.019Z,23.23
2018-12-31T14:50:58.657Z,19.73
2018-12-31T14:56:04.924Z,25.30
2018-12-31T15:01:12.063Z,20.67
2018-12-31T15:06:18.135Z,18.93
2018-12-31T15:11:24.222Z,20.07
2018-12-31T15:16:30.282Z,20.73
2018-12-31T15:21:36.486Z,16.73
2018-12-31T15:26:42.733Z,18.07
2018-12-31T15:31:48.845Z,14.80
2018-12-31T15:36:55.537Z,19.80
2018-12-31T15:42:01.686Z,17.33
2018-12-31T15:47:08.271Z,15.63
2018-12-31T15:52:14.466Z,18.63
2018-12-31T15:57:20.587Z,19.30
2018-12-31T16:02:27.001Z,18.63
2018-12-31T16:07:33.179Z,28.03
2018-12-31T16:12:39.849Z,18.60
2018-12-31T16:17:46.264Z,18.07
2018-12-31T16:22:52.622Z,19.93
2018-12-31T16:27:58.791Z,22.17
2018-12-31T16:33:05.379Z,23.93
2018-12-31T16:38:11.554Z,27.70
2018-12-31T16:43:18.043Z,36.80
2018-12-31T16:48:24.297Z,40.80
2018-12-31T16:53:30.609Z,38.43
2018-12-31T16:58:36.742Z,33.57
2018-12-31T17:03:43.177Z,44.43
2018-12-31T17:08:49.391Z,24.53
2018-12-31T17:13:55.670Z,20.33
2018-12-31T17:19:01.990Z,19.57
2018-12-31T17:24:08.537Z,21.27
2018-12-31T17:29:14.770Z,26.03
2018-12-31T17:34:21.281Z,24.27
2018-12-31T17:39:27.565Z,26.33
2018-12-31T17:44:34.086Z,20.40
2018-12-31T17:49:40.612Z,24.93
2018-12-31T17:54:47.091Z,21.27
2018-12-31T17:59:53.147Z,13.50
2018-12-31T18:04:59.773Z,18.40
2018-12-31T18:10:07.358Z,19.37
2018-12-31T18:15:16.638Z,21.70
2018-12-31T18:20:23.205Z,20.97
2018-12-31T18:25:29.436Z,26.37
2018-12-31T18:30:35.700Z,31.13
2018-12-31T18:35:41.999Z,52.70
2018-12-31T18:40:48.742Z,42.40
2018-12-31T18:45:55.109Z,28.50
2018-12-31T18:51:01.213Z,83.77
2018-12-31T18:56:07.519Z,30.20
2018-12-31T19:01:13.675Z,22.33
2018-12-31T19:06:20.143Z,19.87
2018-12-31T19:11:26.339Z,26.77
2018-12-31T19:16:32.739Z,23.80
2018-12-31T19:21:38.910Z,21.03
2018-12-31T19:26:44.916Z,19.83
2018-12-31T19:31:51.434Z,19.73
2018-12-31T19:36:57.613Z,28.87
2018-12-31T19:42:04.037Z,23.27
2018-12-31T19:47:10.249Z,18.63
2018-12-31T19:52:16.943Z,23.97
2018-12-31T19:57:23.162Z,22.20
2018-12-31T20:02:29.755Z,23.43
2018-12-31T20:07:36.569Z,25.80
2018-12-31T20:12:43.162Z,41.17
2018-12-31T20:17:49.577Z,22.27
2018-12-31T20:22:56.121Z,24.50
2018-12-31T20:28:03.789Z,24.13
2018-12-31T20:33:09.910Z,27.17
2018-12-31T20:38:18.427Z,24.07
2018-12-31T20:43:25.013Z,26.60
2018-12-31T20:48:31.171Z,36.10
2018-12-31T20:53:37.788Z,72.10
2018-12-31T20:58:43.993Z,38.83
2018-12-31T21:03:50.196Z,35.27
2018-12-31T21:08:56.322Z,43.90
2018-12-31T21:14:02.499Z,43.67
2018-12-31T21:19:08.762Z,119.40
2018-12-31T21:24:15.142Z,96.53
2018-12-31T21:29:21.207Z,33.83
2018-12-31T21:34:27.710Z,188.13
2018-12-31T21:39:33.834Z,64.30
2018-12-31T21:44:40.042Z,33.13
2018-12-31T21:49:46.552Z,23.30
2018-12-31T21:54:53.100Z,20.83
2018-12-31T21:59:59.839Z,26.33
2018-12-31T22:05:06.159Z,24.67
2018-12-31T22:10:12.912Z,27.33
2018-12-31T22:15:19.154Z,29.50
2018-12-31T22:20:25.770Z,27.63
2018-12-31T22:25:31.961Z,29.83
2018-12-31T22:30:38.322Z,30.10
2018-12-31T22:35:44.443Z,44.20
2018-12-31T22:40:51.021Z,37.63
2018-12-31T22:45:57.187Z,33.93
2018-12-31T22:51:03.568Z,28.83
2018-12-31T22:56:10.056Z,29.50
2018-12-31T23:01:16.491Z,35.87
2018-12-31T23:06:25.368Z,105.80
2018-12-31T23:11:32.011Z,96.77
2018-12-31T23:16:38.464Z,208.23
2018-12-31T23:21:45.076Z,305.63
2018-12-31T23:26:51.458Z,277.30
2018-12-31T23:31:57.909Z,207.27
2018-12-31T23:37:04.206Z,246.63
2018-12-31T23:42:10.566Z,272.97
2018-12-31T23:47:17.069Z,277.23
2018-12-31T23:52:23.307Z,244.00
2018-12-31T23:57:29.378Z,184.30
